Time;durP1;ratioP1;P1;durP2;ratioP2;P2;SDS_P1;SDS_P2;PMS_P1;PMS_P2;Temp;Humidity;BMP_temperature;BMP_pressure;BME280_temperature;BME280_humidity;BME280_pressure;Samples;Min_cycle;Max_cycle;Signal;HPM_P1;HPM_P2
2022/11/28 00:01:45;;;;;;;11.68;8.10;;;7.70;99.90;;;;;;5035773;28;20021;-74
2022/11/28 00:04:11;;;;;;;11.48;9.13;;;7.80;99.90;;;;;;5035322;28;20025;-76
2022/11/28 00:06:44;;;;;;;10.60;8.27;;;7.80;99.90;;;;;;5036167;28;20450;-74
2022/11/28 00:09:11;;;;;;;10.82;8.52;;;7.80;99.90;;;;;;5035917;28;20048;-74
2022/11/28 00:11:39;;;;;;;15.32;10.00;;;7.80;99.90;;;;;;5034931;28;20049;-75
2022/11/28 00:14:05;;;;;;;9.50;7.95;;;7.80;99.90;;;;;;5036050;28;20022;-74
2022/11/28 00:16:30;;;;;;;12.35;8.60;;;7.80;99.90;;;;;;5035991;28;20032;-74
2022/11/28 00:18:59;;;;;;;10.55;8.55;;;7.90;99.90;;;;;;5035104;28;20021;-74
2022/11/28 00:21:24;;;;;;;11.40;8.90;;;7.80;99.90;;;;;;5035369;28;20021;-74
2022/11/28 00:23:51;;;;;;;11.55;8.63;;;7.80;99.90;;;;;;5034276;28;20048;-75
2022/11/28 00:26:20;;;;;;;10.85;8.60;;;7.90;99.90;;;;;;5035142;28;20088;-74
2022/11/28 00:28:46;;;;;;;10.68;8.60;;;7.90;99.90;;;;;;5035334;28;20120;-74
2022/11/28 00:31:20;;;;;;;9.90;8.85;;;7.90;99.90;;;;;;5034545;28;20415;-74
2022/11/28 00:33:46;;;;;;;13.40;9.23;;;8.00;99.90;;;;;;5035629;28;20494;-74
2022/11/28 00:36:13;;;;;;;9.93;8.80;;;8.00;99.90;;;;;;5035130;28;20115;-74
2022/11/28 00:38:38;;;;;;;13.40;9.65;;;8.00;99.90;;;;;;5034947;28;20056;-74
2022/11/28 00:41:10;;;;;;;10.05;9.05;;;8.00;99.90;;;;;;5034684;28;20033;-74
2022/11/28 00:43:37;;;;;;;12.88;9.10;;;8.10;99.90;;;;;;5035010;28;20022;-74
2022/11/28 00:46:03;;;;;;;10.35;9.35;;;8.00;99.90;;;;;;5034573;28;20025;-73
2022/11/28 00:48:28;;;;;;;10.80;9.48;;;8.00;99.90;;;;;;5035301;28;20056;-74
2022/11/28 00:51:03;;;;;;;10.82;9.45;;;9.00;99.90;;;;;;5034754;28;20413;-74
2022/11/28 00:53:29;;;;;;;10.93;9.38;;;8.10;99.90;;;;;;5034947;28;20052;-75
2022/11/28 00:55:55;;;;;;;10.95;9.95;;;8.00;99.90;;;;;;5034816;28;20450;-73
2022/11/28 00:58:20;;;;;;;12.02;9.30;;;8.00;99.90;;;;;;5034533;28;20117;-74
2022/11/28 01:00:46;;;;;;;10.55;9.40;;;8.10;99.90;;;;;;5033791;28;20145;-75
2022/11/28 01:03:11;;;;;;;10.80;9.23;;;8.10;99.90;;;;;;5034046;28;20044;-74
2022/11/28 01:05:42;;;;;;;11.68;10.30;;;8.10;99.90;;;;;;5034672;28;20029;-75
2022/11/28 01:08:08;;;;;;;10.40;9.40;;;8.10;99.90;;;;;;5033681;28;20033;-74
2022/11/28 01:10:37;;;;;;;10.68;9.63;;;8.10;99.90;;;;;;5034859;28;20038;-75
2022/11/28 01:13:03;;;;;;;10.43;9.38;;;8.10;99.90;;;;;;5033946;28;20022;-76
2022/11/28 01:15:28;;;;;;;11.63;10.43;;;8.10;99.90;;;;;;5034905;28;20405;-75
2022/11/28 01:17:54;;;;;;;11.60;10.60;;;8.10;99.90;;;;;;5034398;28;20021;-74
2022/11/28 01:20:19;;;;;;;10.57;9.50;;;8.20;99.90;;;;;;5034013;28;20100;-75
2022/11/28 01:22:45;;;;;;;11.55;10.45;;;8.20;99.90;;;;;;5034635;28;20022;-75
2022/11/28 01:25:10;;;;;;;11.10;10.10;;;8.20;99.90;;;;;;5034204;28;20053;-75
2022/11/28 01:27:36;;;;;;;10.98;9.98;;;8.20;99.90;;;;;;5033928;28;20117;-75
2022/11/28 01:30:01;;;;;;;10.82;9.82;;;8.30;99.90;;;;;;5034049;28;20057;-75
2022/11/28 01:32:27;;;;;;;11.35;10.32;;;8.30;99.90;;;;;;5034020;28;20025;-76
2022/11/28 01:34:56;;;;;;;10.85;9.95;;;8.30;99.90;;;;;;5033745;28;20049;-75
2022/11/28 01:37:22;;;;;;;11.48;10.40;;;8.30;99.90;;;;;;5034018;28;20026;-74
2022/11/28 01:39:47;;;;;;;11.23;10.23;;;8.30;99.90;;;;;;5034469;28;20025;-75
2022/11/28 01:42:17;;;;;;;10.32;9.50;;;8.30;99.90;;;;;;5033508;28;20088;-76
2022/11/28 01:44:48;;;;;;;10.60;9.70;;;8.30;99.90;;;;;;5034160;28;20096;-75
2022/11/28 01:47:22;;;;;;;11.20;10.27;;;8.30;99.90;;;;;;5034141;28;20021;-76
2022/11/28 01:49:49;;;;;;;10.45;9.55;;;8.40;99.90;;;;;;5033583;28;20037;-75
2022/11/28 01:52:17;;;;;;;11.68;10.68;;;8.40;99.90;;;;;;5033906;28;20025;-75
2022/11/28 01:54:46;;;;;;;10.32;9.43;;;8.40;99.90;;;;;;5033661;28;20492;-73
2022/11/28 01:57:17;;;;;;;10.63;9.73;;;8.40;99.90;;;;;;5033297;28;20041;-75
2022/11/28 01:59:55;;;;;;;10.88;10.07;;;8.50;99.90;;;;;;5033731;28;20113;-75
2022/11/28 02:02:52;;;;;;;11.50;10.50;;;8.50;99.90;;;;;;5033420;28;20477;-75
2022/11/28 02:05:19;;;;;;;12.02;10.93;;;8.50;99.90;;;;;;5029470;28;20026;-75
2022/11/28 02:07:46;;;;;;;12.88;11.57;;;8.50;99.90;;;;;;5033718;28;20120;-76
2022/11/28 02:10:17;;;;;;;12.57;11.50;;;8.40;99.90;;;;;;5032731;28;20033;-74
2022/11/28 02:12:42;;;;;;;;;;;8.50;99.90;;;;;;5033959;28;20442;-75
2022/11/28 02:15:35;;;;;;;10.90;10.00;;;8.50;99.90;;;;;;5033445;28;19944;-75
2022/11/28 02:18:19;;;;;;;12.10;11.10;;;8.50;99.90;;;;;;5031265;28;20025;-75
2022/11/28 02:21:22;;;;;;;11.90;10.90;;;8.50;99.90;;;;;;5034064;28;20092;-74
2022/11/28 02:24:06;;;;;;;11.95;10.88;;;8.50;99.90;;;;;;5033541;28;20041;-74
2022/11/28 02:26:53;;;;;;;11.88;10.77;;;8.50;99.90;;;;;;5020466;28;20056;-74
2022/11/28 02:29:22;;;;;;;11.15;10.20;;;8.50;99.90;;;;;;5033440;28;20034;-74
2022/11/28 02:32:23;;;;;;;9.93;9.02;;;8.50;99.90;;;;;;5032966;28;20032;-74
2022/11/28 02:35:20;;;;;;;10.02;9.23;;;8.60;99.90;;;;;;5033250;28;20021;-74
2022/11/28 02:37:51;;;;;;;9.50;8.70;;;8.60;99.90;;;;;;5027777;28;20116;-74
2022/11/28 02:40:41;;;;;;;9.30;8.52;;;8.70;99.90;;;;;;5032929;28;20017;-75
2022/11/28 02:43:28;;;;;;;10.35;9.38;;;8.60;99.90;;;;;;5032644;28;20113;-74
2022/11/28 02:46:17;;;;;;;9.98;9.05;;;8.60;99.90;;;;;;5032129;28;20068;-74
2022/11/28 02:48:47;;;;;;;9.73;8.85;;;8.70;99.90;;;;;;5020616;28;20021;-74
2022/11/28 02:51:27;;;;;;;13.33;10.03;;;8.70;99.90;;;;;;5033187;28;20033;-74
2022/11/28 02:53:54;;;;;;;11.48;10.10;;;8.60;99.90;;;;;;5021551;28;20033;-75
2022/11/28 02:56:23;;;;;;;11.57;10.52;;;8.70;99.90;;;;;;5032827;28;20033;-74
2022/11/28 02:58:49;;;;;;;12.48;10.93;;;8.70;99.90;;;;;;5032449;28;20068;-74
2022/11/28 03:01:20;;;;;;;12.55;11.25;;;8.70;99.90;;;;;;5045448;28;20504;-75
2022/11/28 03:04:01;;;;;;;12.07;10.95;;;8.60;99.90;;;;;;5052366;28;20417;-75
2022/11/28 03:06:39;;;;;;;12.63;11.52;;;8.60;99.90;;;;;;5051924;28;20033;-75
2022/11/28 03:09:19;;;;;;;13.75;12.13;;;8.60;99.90;;;;;;5052337;28;20427;-75
2022/11/28 03:12:11;;;;;;;13.00;11.82;;;8.60;99.90;;;;;;5053073;28;20111;-74
2022/11/28 03:14:55;;;;;;;13.40;12.15;;;8.60;99.90;;;;;;5052071;28;20477;-75
2022/11/28 03:17:49;;;;;;;13.82;11.27;;;8.60;99.90;;;;;;5052329;28;20028;-75
2022/11/28 03:20:38;;;;;;;14.23;11.48;;;8.60;99.90;;;;;;5051646;28;20025;-74
2022/11/28 03:23:12;;;;;;;14.30;11.85;;;8.60;99.90;;;;;;5052353;28;20029;-74
2022/11/28 03:25:46;;;;;;;13.52;12.20;;;8.60;99.90;;;;;;5038110;28;20040;-74
2022/11/28 03:28:34;;;;;;;14.65;11.52;;;8.60;99.90;;;;;;5051843;28;20024;-74
2022/11/28 03:31:04;;;;;;;12.73;11.43;;;8.70;99.90;;;;;;5052150;28;20033;-75
2022/11/28 03:33:36;;;;;;;16.10;12.65;;;8.60;99.90;;;;;;5052359;28;20472;-74
2022/11/28 03:36:17;;;;;;;15.05;13.65;;;8.50;99.90;;;;;;5025531;28;20040;-74
2022/11/28 03:38:47;;;;;;;18.80;15.50;;;8.50;99.90;;;;;;5052256;28;20025;-75
2022/11/28 03:41:28;;;;;;;17.20;15.45;;;8.50;99.90;;;;;;5051837;28;20499;-74
2022/11/28 03:43:56;;;;;;;15.80;14.05;;;8.50;99.90;;;;;;5051965;28;20489;-74
2022/11/28 03:46:29;;;;;;;18.67;16.02;;;8.50;99.90;;;;;;5045721;28;20116;-74
2022/11/28 03:48:57;;;;;;;17.35;15.43;;;8.40;99.90;;;;;;5045719;28;20423;-74
2022/11/28 03:51:33;;;;;;;17.42;14.45;;;8.40;99.90;;;;;;5052069;28;20035;-74
2022/11/28 03:54:31;;;;;;;18.20;14.90;;;8.40;99.90;;;;;;5051678;28;20079;-75
2022/11/28 03:57:11;;;;;;;16.60;14.15;;;8.40;99.90;;;;;;5051350;28;20017;-75
2022/11/28 03:59:49;;;;;;;16.75;14.05;;;8.40;99.90;;;;;;5052172;28;20029;-73
2022/11/28 04:02:29;;;;;;;16.17;14.48;;;8.40;99.90;;;;;;5051369;28;20044;-75
2022/11/28 04:05:13;;;;;;;16.83;13.65;;;8.40;99.90;;;;;;5052162;28;20386;-74
2022/11/28 04:07:51;;;;;;;16.80;13.77;;;8.40;99.90;;;;;;5052097;28;20025;-74
2022/11/28 04:10:32;;;;;;;15.68;14.18;;;8.40;99.90;;;;;;5051406;28;20037;-74
2022/11/28 04:13:10;;;;;;;16.40;14.73;;;8.40;99.90;;;;;;5051514;28;20025;-74
2022/11/28 04:15:53;;;;;;;17.38;15.57;;;8.40;99.90;;;;;;5043486;28;20025;-75
2022/11/28 04:18:29;;;;;;;16.70;14.98;;;8.40;99.90;;;;;;5048974;28;20104;-74
2022/11/28 04:21:13;;;;;;;18.38;15.20;;;8.40;99.90;;;;;;5051429;28;20079;-74
2022/11/28 04:23:42;;;;;;;17.23;15.45;;;8.40;99.90;;;;;;5051331;28;20028;-74
2022/11/28 04:26:17;;;;;;;19.52;16.98;;;8.30;99.90;;;;;;5051760;28;20053;-74
2022/11/28 04:28:45;;;;;;;23.35;17.88;;;8.30;99.90;;;;;;5055199;28;20048;-75
2022/11/28 04:31:11;;;;;;;20.20;17.00;;;8.40;99.90;;;;;;5054703;28;20385;-74
2022/11/28 04:33:43;;;;;;;20.80;17.65;;;8.40;99.90;;;;;;5055412;28;20125;-74
2022/11/28 04:36:10;;;;;;;19.75;17.75;;;8.30;99.90;;;;;;5055452;28;20122;-75
2022/11/28 04:38:39;;;;;;;20.13;17.40;;;8.40;99.90;;;;;;5054696;28;20417;-75
2022/11/28 04:41:15;;;;;;;22.23;18.75;;;8.40;99.90;;;;;;5055098;28;20025;-75
2022/11/28 04:43:51;;;;;;;20.67;18.48;;;8.40;99.90;;;;;;5055819;28;20074;-75
2022/11/28 04:46:25;;;;;;;22.25;18.17;;;8.40;99.90;;;;;;5054682;28;20032;-74
2022/11/28 04:48:51;;;;;;;21.30;17.10;;;8.30;99.90;;;;;;5055170;28;20521;-76
2022/11/28 04:51:26;;;;;;;21.95;18.92;;;8.30;99.90;;;;;;5054481;28;20794;-76
2022/11/28 04:54:31;;;;;;;24.05;18.30;;;8.30;99.90;;;;;;5055013;28;20048;-75
2022/11/28 04:57:07;;;;;;;23.42;19.63;;;8.30;99.90;;;;;;5055273;28;20127;-76
2022/11/28 04:59:33;;;;;;;23.00;19.50;;;8.30;99.90;;;;;;5054712;28;20040;-75
2022/11/28 05:02:03;;;;;;;23.48;19.58;;;8.40;99.90;;;;;;5054939;28;20021;-75
2022/11/28 05:04:28;;;;;;;26.52;19.70;;;8.40;99.90;;;;;;5054759;28;20029;-74
2022/11/28 05:07:02;;;;;;;21.80;19.50;;;8.40;99.90;;;;;;5053837;28;20541;-75
2022/11/28 05:09:28;;;;;;;23.10;19.75;;;8.40;99.90;;;;;;5054815;28;20041;-76
2022/11/28 05:11:57;;;;;;;24.05;20.75;;;8.40;99.90;;;;;;5054466;28;20021;-75
2022/11/28 05:14:22;;;;;;;23.70;19.63;;;9.40;99.90;;;;;;5054395;28;20052;-75
2022/11/28 05:16:48;;;;;;;26.45;20.73;;;8.40;99.90;;;;;;5055070;28;20512;-74
2022/11/28 05:19:14;;;;;;;25.73;20.23;;;8.40;99.90;;;;;;5053671;28;20025;-76
2022/11/28 05:21:40;;;;;;;26.55;22.02;;;8.80;99.90;;;;;;5054599;28;20481;-76
2022/11/28 05:24:06;;;;;;;29.98;23.08;;;8.40;99.90;;;;;;5054713;28;20017;-76
2022/11/28 05:26:33;;;;;;;26.17;21.90;;;8.40;99.90;;;;;;5054059;28;20560;-75
2022/11/28 05:28:58;;;;;;;29.17;21.88;;;8.40;99.90;;;;;;5054430;28;20036;-75
2022/11/28 05:31:24;;;;;;;26.33;21.95;;;8.30;99.90;;;;;;5054449;28;20025;-74
2022/11/28 05:33:50;;;;;;;27.25;22.83;;;8.40;99.90;;;;;;5053602;28;20036;-75
2022/11/28 05:36:16;;;;;;;26.30;21.70;;;8.40;99.90;;;;;;5054748;28;20029;-74
2022/11/28 05:38:43;;;;;;;28.40;22.52;;;8.40;99.90;;;;;;5053355;28;20484;-75
2022/11/28 05:41:16;;;;;;;29.48;23.45;;;8.40;99.90;;;;;;5054158;28;20017;-74
2022/11/28 05:43:42;;;;;;;27.75;22.92;;;8.40;99.90;;;;;;5054640;28;20051;-75
2022/11/28 05:46:07;;;;;;;33.50;23.27;;;8.40;99.90;;;;;;5054053;28;20469;-75
2022/11/28 05:48:34;;;;;;;27.30;22.95;;;8.40;99.90;;;;;;5040115;28;20474;-75
2022/11/28 05:50:59;;;;;;;29.77;23.50;;;8.40;99.90;;;;;;5016595;28;20092;-75
2022/11/28 05:53:25;;;;;;;27.95;22.75;;;8.40;99.90;;;;;;5014617;28;20482;-75
2022/11/28 05:55:50;;;;;;;31.17;24.55;;;8.40;99.90;;;;;;5018373;28;20029;-76
2022/11/28 05:58:16;;;;;;;32.08;23.77;;;8.40;99.90;;;;;;5018288;28;20033;-74
2022/11/28 06:00:41;;;;;;;29.80;24.73;;;8.40;99.90;;;;;;5015593;28;20113;-75
2022/11/28 06:03:07;;;;;;;30.90;24.48;;;8.40;99.90;;;;;;5017751;28;20018;-75
2022/11/28 06:05:33;;;;;;;31.27;25.15;;;8.30;99.90;;;;;;5023463;28;20033;-76
2022/11/28 06:07:59;;;;;;;32.30;25.73;;;8.40;99.90;;;;;;5016860;28;20053;-76
2022/11/28 06:10:24;;;;;;;32.65;25.17;;;8.50;99.90;;;;;;5017422;28;20055;-74
2022/11/28 06:12:50;;;;;;;35.35;25.95;;;8.40;99.90;;;;;;5013036;28;20029;-75
2022/11/28 06:15:15;;;;;;;38.88;26.38;;;8.30;99.90;;;;;;5015159;28;20033;-74
2022/11/28 06:17:41;;;;;;;35.30;25.92;;;8.40;99.90;;;;;;5019907;28;20037;-75
2022/11/28 06:20:07;;;;;;;38.60;27.73;;;8.40;99.90;;;;;;5017625;28;20153;-75
2022/11/28 06:22:33;;;;;;;35.70;26.13;;;8.40;99.90;;;;;;5013554;28;20045;-75
2022/11/28 06:24:59;;;;;;;36.38;26.48;;;8.40;99.90;;;;;;5014079;28;20022;-75
2022/11/28 06:27:24;;;;;;;39.13;26.55;;;8.40;99.90;;;;;;5019273;28;20099;-74
2022/11/28 06:29:50;;;;;;;35.38;25.83;;;8.40;99.90;;;;;;5031744;28;20080;-75
2022/11/28 06:32:15;;;;;;;40.80;28.75;;;8.40;99.90;;;;;;5032586;28;20018;-75
2022/11/28 06:34:41;;;;;;;42.25;29.33;;;8.40;99.90;;;;;;5032933;28;20721;-76
2022/11/28 06:37:06;;;;;;;44.30;28.63;;;8.40;99.90;;;;;;5031171;28;20095;-75
2022/11/28 06:39:32;;;;;;;39.10;28.88;;;8.40;99.90;;;;;;5032047;28;20029;-77
2022/11/28 06:41:58;;;;;;;45.92;28.90;;;8.40;99.90;;;;;;5031820;28;20052;-77
2022/11/28 06:44:23;;;;;;;42.92;28.58;;;8.40;99.90;;;;;;5031345;28;20113;-76
2022/11/28 06:46:49;;;;;;;45.95;28.83;;;8.40;99.90;;;;;;5029447;28;20026;-76
2022/11/28 06:49:14;;;;;;;46.22;28.40;;;8.30;99.90;;;;;;5032002;28;20426;-74
2022/11/28 06:51:41;;;;;;;46.30;29.73;;;8.40;99.90;;;;;;5028664;28;20116;-75
2022/11/28 06:54:07;;;;;;;45.80;29.45;;;8.50;99.90;;;;;;5029433;28;20056;-75
2022/11/28 06:56:32;;;;;;;50.45;29.25;;;8.40;99.90;;;;;;5031840;28;20096;-77
2022/11/28 06:58:59;;;;;;;52.33;30.17;;;9.20;99.90;;;;;;5031058;28;20762;-75
2022/11/28 07:01:28;;;;;;;51.90;30.40;;;8.50;99.90;;;;;;5030589;28;20030;-75
2022/11/28 07:03:54;;;;;;;46.90;29.58;;;8.40;99.90;;;;;;5031341;28;20343;-76
2022/11/28 07:06:21;;;;;;;44.97;27.85;;;8.40;99.90;;;;;;5030657;28;20036;-75
2022/11/28 07:08:47;;;;;;;50.85;28.70;;;8.50;99.90;;;;;;5034164;28;20473;-75
2022/11/28 07:11:31;;;;;;;49.92;29.63;;;8.50;99.90;;;;;;5031572;28;20022;-77
2022/11/28 07:14:00;;;;;;;55.22;30.38;;;8.50;99.90;;;;;;5030173;28;20091;-75
2022/11/28 07:16:28;;;;;;;55.45;30.65;;;8.60;99.90;;;;;;5031753;28;20389;-75
2022/11/28 07:18:55;;;;;;;47.92;29.08;;;8.50;99.90;;;;;;5030965;28;20030;-76
2022/11/28 07:21:21;;;;;;;53.08;28.63;;;8.50;99.90;;;;;;5031332;28;20036;-76
2022/11/28 07:23:47;;;;;;;49.47;28.35;;;8.50;99.90;;;;;;5031297;28;20025;-75
2022/11/28 07:26:15;;;;;;;53.30;30.45;;;8.50;99.90;;;;;;5030987;28;20060;-76
2022/11/28 07:28:42;;;;;;;51.55;27.75;;;8.50;99.90;;;;;;5030824;28;20478;-76
2022/11/28 07:31:12;;;;;;;52.50;28.35;;;8.50;99.90;;;;;;5031862;28;20060;-76
2022/11/28 07:33:39;;;;;;;57.78;30.52;;;8.50;99.90;;;;;;5031595;28;20026;-75
2022/11/28 07:36:08;;;;;;;57.67;30.73;;;8.50;99.90;;;;;;5031837;28;20029;-75
2022/11/28 07:38:34;;;;;;;58.70;29.38;;;8.60;99.90;;;;;;5028290;28;20125;-74
2022/11/28 07:41:11;;;;;;;58.53;29.75;;;8.60;99.90;;;;;;5018816;28;20049;-76
2022/11/28 07:43:38;;;;;;;59.83;29.08;;;8.60;99.90;;;;;;5025932;28;20021;-72
2022/11/28 07:46:09;;;;;;;57.55;29.55;;;8.70;99.90;;;;;;5019582;28;20025;-73
2022/11/28 07:48:36;;;;;;;55.90;29.70;;;8.60;99.90;;;;;;5030987;28;20116;-73
2022/11/28 07:51:10;;;;;;;65.25;29.60;;;8.70;99.90;;;;;;5031280;28;20053;-74
2022/11/28 07:53:37;;;;;;;56.35;28.23;;;8.70;99.90;;;;;;5031754;28;20108;-73
2022/11/28 07:56:04;;;;;;;65.05;30.23;;;8.70;99.90;;;;;;5033218;28;20041;-74
2022/11/28 07:58:30;;;;;;;69.40;31.88;;;8.70;99.90;;;;;;5040346;28;20013;-73
2022/11/28 08:00:56;;;;;;;62.67;29.10;;;8.70;99.90;;;;;;5031150;28;20044;-75
2022/11/28 08:03:21;;;;;;;60.83;29.42;;;8.70;99.90;;;;;;5036074;28;20067;-75
2022/11/28 08:05:48;;;;;;;63.30;28.95;;;8.70;99.90;;;;;;5035835;28;20387;-74
2022/11/28 08:08:18;;;;;;;64.20;28.67;;;8.70;99.90;;;;;;5039608;28;20029;-74
2022/11/28 08:10:44;;;;;;;72.67;29.93;;;8.80;99.90;;;;;;5037756;28;20555;-75
2022/11/28 08:13:11;;;;;;;72.22;29.50;;;8.80;99.90;;;;;;5035487;28;20280;-73
2022/11/28 08:15:38;;;;;;;73.60;29.10;;;8.90;99.90;;;;;;5028319;28;20034;-75
2022/11/28 08:18:04;;;;;;;62.70;27.85;;;8.90;99.90;;;;;;5029087;28;20465;-71
2022/11/28 08:20:30;;;;;;;68.65;29.63;;;8.90;99.90;;;;;;5035322;28;20037;-74
2022/11/28 08:22:55;;;;;;;72.35;30.35;;;8.90;99.90;;;;;;5033725;28;20079;-74
2022/11/28 08:25:21;;;;;;;72.68;30.98;;;9.00;99.90;;;;;;5034358;28;20046;-75
2022/11/28 08:27:47;;;;;;;71.75;29.25;;;9.00;99.90;;;;;;5034482;28;20029;-72
2022/11/28 08:30:13;;;;;;;68.78;29.67;;;9.00;99.90;;;;;;5034487;28;20033;-74
2022/11/28 08:32:41;;;;;;;71.03;27.52;;;9.00;99.90;;;;;;5028727;28;20116;-75
2022/11/28 08:35:07;;;;;;;72.97;30.45;;;8.90;99.90;;;;;;5033465;28;20033;-74
2022/11/28 08:37:33;;;;;;;80.32;32.50;;;9.00;99.90;;;;;;5033099;28;20029;-74
2022/11/28 08:39:58;;;;;;;72.07;30.70;;;8.90;99.90;;;;;;5034743;28;20048;-74
2022/11/28 08:42:24;;;;;;;66.55;30.75;;;8.90;99.90;;;;;;5034863;28;20108;-74
2022/11/28 08:44:49;;;;;;;76.18;30.45;;;8.90;99.90;;;;;;5034277;28;20112;-74
2022/11/28 08:47:15;;;;;;;75.20;31.13;;;8.90;99.90;;;;;;5039941;28;20025;-74
2022/11/28 08:49:40;;;;;;;87.15;32.28;;;9.00;99.90;;;;;;5035544;28;20045;-73
2022/11/28 08:52:06;;;;;;;84.65;33.65;;;8.90;99.90;;;;;;5035042;28;20024;-73
2022/11/28 08:54:31;;;;;;;85.28;33.85;;;8.90;99.90;;;;;;5035567;28;20029;-74
2022/11/28 08:56:57;;;;;;;85.65;32.67;;;8.90;99.90;;;;;;5033624;28;20022;-74
2022/11/28 08:59:23;;;;;;;85.95;32.38;;;9.00;99.90;;;;;;5032140;28;20033;-74
2022/11/28 09:01:52;;;;;;;88.65;34.88;;;9.00;99.90;;;;;;5038167;28;20481;-74
2022/11/28 09:04:18;;;;;;;85.65;34.17;;;9.10;99.90;;;;;;5032138;28;20450;-72
2022/11/28 09:06:43;;;;;;;88.47;34.42;;;9.10;99.90;;;;;;5032572;28;20040;-75
2022/11/28 09:09:09;;;;;;;90.15;34.65;;;9.10;99.90;;;;;;5044458;28;20037;-74
2022/11/28 09:11:35;;;;;;;89.00;34.40;;;9.10;99.90;;;;;;5053589;28;20017;-73
2022/11/28 09:14:01;;;;;;;83.20;33.53;;;9.10;99.90;;;;;;5054266;28;20032;-74
2022/11/28 09:16:26;;;;;;;75.13;30.95;;;9.10;99.90;;;;;;5054204;28;20500;-74
2022/11/28 09:18:53;;;;;;;84.50;36.05;;;9.20;99.90;;;;;;5053591;28;20377;-74
2022/11/28 09:21:19;;;;;;;83.28;32.97;;;9.20;99.90;;;;;;5054484;28;20032;-74
2022/11/28 09:23:44;;;;;;;79.72;33.08;;;9.20;99.90;;;;;;5054955;28;20419;-73
2022/11/28 09:26:12;;;;;;;66.10;30.58;;;9.30;99.90;;;;;;5045083;28;20549;-74
2022/11/28 09:28:39;;;;;;;67.93;29.42;;;9.40;99.90;;;;;;5024122;28;20033;-74
2022/11/28 09:31:06;;;;;;;60.45;26.88;;;9.50;99.90;;;;;;5032604;28;20104;-73
2022/11/28 09:33:32;;;;;;;62.60;28.05;;;9.60;99.90;;;;;;5033448;28;20030;-73
2022/11/28 09:36:02;;;;;;;57.30;26.77;;;9.60;99.90;;;;;;5030610;28;20029;-74
2022/11/28 09:38:28;;;;;;;53.47;25.20;;;9.70;99.90;;;;;;5023611;28;20022;-81
2022/11/28 09:40:53;;;;;;;53.92;26.27;;;10.00;99.90;;;;;;5031703;28;20046;-73
2022/11/28 09:43:23;;;;;;;50.22;24.52;;;9.80;99.90;;;;;;5031549;28;20025;-73
2022/11/28 09:45:51;;;;;;;59.50;26.08;;;9.80;99.90;;;;;;5030920;28;20076;-74
2022/11/28 09:48:24;;;;;;;42.90;23.83;;;9.90;99.90;;;;;;5030220;28;20098;-73
2022/11/28 09:50:53;;;;;;;44.38;23.92;;;9.90;99.90;;;;;;5030490;28;20512;-73
2022/11/28 09:53:25;;;;;;;48.65;24.10;;;9.90;99.90;;;;;;5031093;28;20059;-73
2022/11/28 09:55:58;;;;;;;45.53;23.17;;;10.00;99.90;;;;;;5030509;28;20029;-73
2022/11/28 09:58:44;;;;;;;42.85;23.27;;;10.00;99.90;;;;;;5031064;28;20025;-74
2022/11/28 10:01:14;;;;;;;41.72;22.33;;;10.00;99.90;;;;;;5028629;28;20025;-74
2022/11/28 10:03:42;;;;;;;42.95;21.63;;;10.10;99.90;;;;;;5031307;28;20490;-73
2022/11/28 10:06:17;;;;;;;44.50;22.90;;;10.10;99.90;;;;;;5030004;28;20025;-73
2022/11/28 10:08:48;;;;;;;44.55;22.48;;;10.10;99.90;;;;;;5032091;28;20026;-73
2022/11/28 10:11:54;;;;;;;36.40;21.17;;;10.20;99.90;;;;;;5026829;28;20029;-73
2022/11/28 10:14:48;;;;;;;49.47;24.45;;;10.20;99.90;;;;;;5029593;28;20523;-73
2022/11/28 10:17:32;;;;;;;41.97;22.40;;;10.20;99.90;;;;;;5029759;28;20405;-74
2022/11/28 10:20:03;;;;;;;50.67;24.95;;;10.20;99.90;;;;;;5028883;28;20497;-73
2022/11/28 10:22:55;;;;;;;46.42;24.42;;;10.30;99.90;;;;;;5027937;28;20025;-73
2022/11/28 10:25:28;;;;;;;49.78;25.20;;;10.40;99.90;;;;;;5029098;28;20057;-72
2022/11/28 10:27:54;;;;;;;49.80;25.63;;;10.40;99.90;;;;;;5030223;28;20029;-73
2022/11/28 10:30:32;;;;;;;48.97;25.05;;;10.40;99.90;;;;;;5029806;28;20402;-75
2022/11/28 10:33:14;;;;;;;45.13;24.65;;;10.50;99.90;;;;;;5030489;28;20036;-73
2022/11/28 10:35:58;;;;;;;44.30;24.75;;;10.50;99.90;;;;;;5027924;28;20040;-74
2022/11/28 10:38:26;;;;;;;43.45;24.50;;;10.50;99.90;;;;;;5029498;28;20212;-73
2022/11/28 10:41:14;;;;;;;37.88;23.00;;;10.50;99.90;;;;;;5030469;28;20123;-74
2022/11/28 10:44:10;;;;;;;40.30;23.90;;;10.50;99.90;;;;;;5028794;28;20029;-74
2022/11/28 10:46:38;;;;;;;40.30;22.52;;;10.50;99.90;;;;;;5028327;28;20112;-74
2022/11/28 10:49:32;;;;;;;38.78;22.17;;;10.40;99.90;;;;;;5029094;28;20036;-74
2022/11/28 10:52:12;;;;;;;38.50;22.02;;;10.40;99.90;;;;;;5028230;28;20096;-73
2022/11/28 10:54:50;;;;;;;38.40;21.75;;;10.40;99.90;;;;;;5028995;28;20132;-73
2022/11/28 10:57:47;;;;;;;41.08;22.27;;;10.50;99.90;;;;;;5029139;28;20037;-73
2022/11/28 11:00:17;;;;;;;39.45;23.30;;;10.50;99.90;;;;;;5029481;28;20088;-74
2022/11/28 11:02:49;;;;;;;46.33;24.13;;;10.50;99.90;;;;;;5030120;28;20147;-74
2022/11/28 11:05:23;;;;;;;44.22;22.88;;;10.50;99.90;;;;;;5031121;28;21045;-73
2022/11/28 11:07:51;;;;;;;44.17;24.52;;;10.50;99.90;;;;;;5029296;28;20018;-75
2022/11/28 11:10:21;;;;;;;48.17;25.02;;;10.50;99.90;;;;;;5031977;28;20029;-74
2022/11/28 11:12:51;;;;;;;46.13;25.98;;;10.50;99.90;;;;;;5032262;28;20474;-74
2022/11/28 11:15:32;;;;;;;48.57;24.87;;;10.40;99.90;;;;;;5028016;28;20059;-74
2022/11/28 11:18:18;;;;;;;49.83;28.02;;;10.40;99.90;;;;;;5025318;28;20040;-73
2022/11/28 11:20:44;;;;;;;59.45;27.15;;;10.40;99.90;;;;;;5028747;28;20087;-73
2022/11/28 11:23:18;;;;;;;51.38;28.05;;;10.40;99.90;;;;;;5029631;28;20033;-73
2022/11/28 11:25:53;;;;;;;51.42;27.48;;;10.40;99.90;;;;;;5026540;28;20043;-74
2022/11/28 11:28:24;;;;;;;58.20;27.70;;;10.50;99.90;;;;;;5029974;28;20022;-74
2022/11/28 11:30:58;;;;;;;54.22;27.52;;;10.50;99.90;;;;;;5029400;28;20486;-74
2022/11/28 11:33:29;;;;;;;61.80;27.48;;;10.40;99.90;;;;;;5027756;28;20362;-74
2022/11/28 11:35:54;;;;;;;52.92;27.95;;;10.40;99.90;;;;;;5029805;28;20049;-73
2022/11/28 11:38:20;;;;;;;56.45;29.27;;;10.40;99.90;;;;;;5033870;28;20037;-74
2022/11/28 11:40:46;;;;;;;59.35;29.48;;;10.40;99.90;;;;;;5033356;28;20014;-74
2022/11/28 11:43:34;;;;;;;54.47;26.30;;;10.30;99.90;;;;;;5034119;28;20056;-74
2022/11/28 11:46:12;;;;;;;48.63;26.92;;;10.40;99.90;;;;;;5032380;28;20021;-75
2022/11/28 11:48:44;;;;;;;58.55;27.73;;;10.40;99.90;;;;;;5031716;28;20061;-74
2022/11/28 11:51:21;;;;;;;63.05;27.52;;;10.40;99.90;;;;;;5030590;28;20146;-75
2022/11/28 11:53:46;;;;;;;54.25;26.20;;;10.50;99.90;;;;;;5031135;28;20108;-75
2022/11/28 11:56:12;;;;;;;66.85;27.58;;;10.50;99.90;;;;;;5033601;28;20101;-75
2022/11/28 11:58:45;;;;;;;53.65;28.48;;;10.60;99.90;;;;;;5031878;28;20040;-75
2022/11/28 12:01:15;;;;;;;56.97;28.00;;;10.70;99.90;;;;;;5019507;28;20025;-74
2022/11/28 12:03:53;;;;;;;51.63;26.50;;;10.70;99.90;;;;;;5021119;28;20028;-74
2022/11/28 12:06:33;;;;;;;58.67;27.38;;;10.70;99.90;;;;;;5022872;28;20049;-74
2022/11/28 12:09:13;;;;;;;53.35;26.55;;;10.70;99.90;;;;;;5023676;28;20420;-74
2022/11/28 12:11:42;;;;;;;;;;;10.70;99.90;;;;;;5030947;28;20538;-74
2022/11/28 12:14:28;;;;;;;50.95;24.88;;;10.70;99.90;;;;;;5034850;28;20422;-73
2022/11/28 12:16:57;;;;;;;54.45;26.27;;;10.70;99.90;;;;;;5035018;28;20040;-74
2022/11/28 12:19:31;;;;;;;49.42;26.83;;;10.70;99.90;;;;;;5035644;28;20049;-74
2022/11/28 12:22:20;;;;;;;62.63;28.65;;;10.70;99.90;;;;;;5030507;28;20060;-73
2022/11/28 12:25:09;;;;;;;57.70;28.13;;;10.70;99.90;;;;;;5023929;28;20032;-73
2022/11/28 12:28:08;;;;;;;54.03;27.77;;;10.70;99.90;;;;;;5019324;28;20375;-74
2022/11/28 12:30:44;;;;;;;48.70;25.73;;;10.80;99.90;;;;;;5018584;28;20042;-74
2022/11/28 12:33:25;;;;;;;54.38;27.40;;;10.80;99.90;;;;;;5016752;28;20033;-75
2022/11/28 12:36:28;;;;;;;54.65;27.73;;;10.70;99.90;;;;;;5019324;28;20366;-73
2022/11/28 12:39:13;;;;;;;51.42;26.88;;;10.80;99.90;;;;;;5025524;28;20030;-73
2022/11/28 12:42:17;;;;;;;49.85;25.63;;;10.80;99.90;;;;;;5034518;28;20033;-72
2022/11/28 12:45:12;;;;;;;55.65;26.33;;;10.80;99.90;;;;;;5034821;28;20057;-74
2022/11/28 12:48:09;;;;;;;53.42;26.40;;;10.80;99.90;;;;;;5034683;28;20497;-74
2022/11/28 12:50:48;;;;;;;48.95;26.10;;;10.80;99.90;;;;;;5034115;28;20029;-73
2022/11/28 12:53:42;;;;;;;48.45;25.83;;;10.80;99.90;;;;;;5034682;28;20026;-72
2022/11/28 12:56:38;;;;;;;61.85;29.05;;;10.80;99.90;;;;;;5034505;28;20035;-74
2022/11/28 12:59:29;;;;;;;55.03;28.08;;;10.80;99.90;;;;;;5034525;28;20056;-73
2022/11/28 13:02:15;;;;;;;51.03;27.33;;;10.90;99.90;;;;;;5034535;28;20052;-74